Time;durP1;ratioP1;P1;durP2;ratioP2;P2;SDS_P1;SDS_P2;PMS_P1;PMS_P2;Temp;Humidity;BMP_temperature;BMP_pressure;BME280_temperature;BME280_humidity;BME280_pressure;Samples;Min_cycle;Max_cycle;Signal;HPM_P1;HPM_P2
2022/10/15 00:01:57;;;;;;;4.35;2.00;;;;;;;11.57;68.76;99803.09;4929267;28;20031;-94
2022/10/15 00:04:22;;;;;;;3.88;1.70;;;;;;;11.54;68.80;99801.72;4946049;28;20106;-93
2022/10/15 00:06:50;;;;;;;4.82;2.13;;;;;;;11.55;68.56;99795.25;4926216;29;20035;-94
2022/10/15 00:09:15;;;;;;;6.70;1.95;;;;;;;11.45;68.90;99796.00;4926598;29;20042;-94
2022/10/15 00:11:41;;;;;;;3.10;1.88;;;;;;;11.44;69.17;99799.81;4923400;29;20410;-94
2022/10/15 00:14:08;;;;;;;3.25;1.90;;;;;;;11.29;69.15;99783.56;4941753;29;20035;-94
2022/10/15 00:16:35;;;;;;;4.25;1.80;;;;;;;11.36;69.61;99797.59;4959031;29;20165;-94
2022/10/15 00:19:01;;;;;;;6.53;2.20;;;;;;;11.28;69.85;99795.41;4925571;29;20027;-93
2022/10/15 00:21:27;;;;;;;3.42;1.65;;;;;;;11.38;69.11;99792.75;4925059;29;20058;-94
2022/10/15 00:23:55;;;;;;;5.63;1.88;;;;;;;11.26;69.50;99784.88;4910151;29;20453;-94
2022/10/15 00:26:23;;;;;;;3.97;1.77;;;;;;;11.27;69.40;99778.44;4941271;29;20038;-94
2022/10/15 00:28:50;;;;;;;4.10;1.75;;;;;;;11.35;68.97;99784.38;4940480;29;20039;-94
2022/10/15 00:31:17;;;;;;;4.03;1.77;;;;;;;11.42;68.70;99788.47;4927020;29;20032;-93
2022/10/15 00:33:42;;;;;;;4.28;1.70;;;;;;;11.39;69.14;99788.16;4890857;29;20024;-94
2022/10/15 00:36:13;;;;;;;5.85;1.85;;;;;;;11.30;69.06;99780.59;4890886;29;20028;-93
2022/10/15 00:38:40;;;;;;;6.35;1.73;;;;;;;11.15;69.06;99767.06;4922318;29;20028;-93
2022/10/15 00:41:08;;;;;;;3.35;1.50;;;;;;;11.35;68.91;99787.91;4905725;29;20413;-94
2022/10/15 00:43:42;;;;;;;6.07;2.03;;;;;;;11.25;69.13;99774.38;4906496;29;20027;-94
2022/10/15 00:46:27;;;;;;;3.55;1.67;;;;;;;11.25;69.47;99801.34;4906638;29;20518;-94
2022/10/15 00:49:21;;;;;;;4.30;1.80;;;;;;;11.16;69.85;99805.59;4915189;29;20098;-94
2022/10/15 00:51:49;;;;;;;4.38;1.90;;;;;;;10.97;69.68;99775.56;4938473;29;20034;-94
2022/10/15 00:54:15;;;;;;;4.63;1.60;;;;;;;11.02;69.57;99776.44;4906336;29;20038;-94
2022/10/15 00:56:42;;;;;;;4.30;1.65;;;;;;;11.00;70.16;99799.28;4938137;29;20412;-95
2022/10/15 00:59:08;;;;;;;2.97;1.80;;;;;;;10.87;70.34;99787.09;4939161;29;20039;-94
2022/10/15 01:01:35;;;;;;;6.80;1.70;;;;;;;10.94;70.66;99784.19;4921226;29;20127;-94
2022/10/15 01:04:00;;;;;;;4.75;1.90;;;;;;;10.86;70.44;99780.09;4921324;29;20023;-94
2022/10/15 01:06:26;;;;;;;3.10;1.70;;;;;;;10.83;70.63;99788.69;4908973;29;20035;-95
2022/10/15 01:08:51;;;;;;;2.17;1.50;;;;;;;10.77;70.72;99776.25;4905670;29;20027;-94
2022/10/15 01:11:41;;;;;;;2.85;1.80;;;;;;;10.85;70.67;99784.69;4915059;29;20028;-94
2022/10/15 01:14:28;;;;;;;3.78;2.00;;;;;;;10.81;70.69;99774.66;4937306;29;20027;-95
2022/10/15 01:16:54;;;;;;;2.95;1.70;;;;;;;10.72;71.10;99791.31;4955771;29;20175;-94
2022/10/15 01:19:25;;;;;;;3.53;1.55;;;;;;;10.77;71.32;99795.13;4956465;29;20493;-94
2022/10/15 01:21:58;;;;;;;2.50;1.33;;;;;;;10.78;71.07;99780.59;4959348;28;20082;-94
2022/10/15 01:24:43;;;;;;;3.58;1.63;;;;;;;10.75;71.27;99787.31;4943641;28;20035;-94
2022/10/15 01:27:35;;;;;;;3.38;1.80;;;;;;;10.82;71.01;99803.25;4939903;29;20030;-95
2022/10/15 01:30:23;;;;;;;4.03;1.88;;;;;;;10.89;70.65;99801.94;4943613;28;20042;-92
2022/10/15 01:33:09;;;;;;;3.60;1.58;;;;;;;10.80;70.94;99791.91;4942870;28;20109;-92
2022/10/15 01:36:19;;;;;;;2.92;1.55;;;;;;;10.66;70.83;99773.50;4976215;28;20038;-94
2022/10/15 01:39:33;;;;;;;3.75;1.90;;;;;;;10.64;71.44;99794.50;4924181;29;20497;-94
2022/10/15 01:42:00;;;;;;;4.82;1.67;;;;;;;10.62;71.08;99791.25;4866807;29;20044;-94
2022/10/15 01:44:52;;;;;;;4.03;1.60;;;;;;;10.60;71.80;99801.47;4851346;29;20044;-95
2022/10/15 01:47:48;;;;;;;4.35;1.70;;;;;;;10.42;72.47;99791.91;4880079;29;20036;-94
2022/10/15 01:50:15;;;;;;;2.53;1.60;;;;;;;10.38;72.49;99785.41;4853849;29;20119;-94
2022/10/15 01:52:41;;;;;;;3.47;1.67;;;;;;;10.38;73.04;99793.50;4866767;29;20052;-94
2022/10/15 01:55:10;;;;;;;2.55;1.63;;;;;;;10.35;72.94;99793.19;4850953;29;20069;-95
2022/10/15 01:57:35;;;;;;;3.45;1.77;;;;;;;10.19;72.89;99790.34;4851864;29;20127;-94
2022/10/15 02:00:04;;;;;;;4.70;1.90;;;;;;;10.15;73.05;99783.84;4866701;29;20041;-93
2022/10/15 02:02:29;;;;;;;5.07;1.65;;;;;;;10.25;72.73;99800.09;4881890;29;20060;-94
2022/10/15 02:04:56;;;;;;;3.88;1.98;;;;;;;10.18;73.15;99791.41;4850344;29;20063;-94
2022/10/15 02:08:06;;;;;;;2.60;1.60;;;;;;;10.10;72.90;99779.22;4850841;29;20127;-92
2022/10/15 02:10:43;;;;;;;8.25;1.60;;;;;;;10.09;73.16;99782.19;4811003;29;20501;-92
2022/10/15 02:13:25;;;;;;;4.60;2.03;;;;;;;10.19;72.82;99795.72;4871215;29;20043;-94
2022/10/15 02:16:19;;;;;;;4.43;1.63;;;;;;;10.12;73.41;99798.59;4890178;29;20119;-94
2022/10/15 02:19:11;;;;;;;3.35;1.60;;;;;;;10.01;73.76;99788.81;4897286;29;20033;-94
2022/10/15 02:22:10;;;;;;;5.00;1.90;;;;;;;9.95;74.12;99784.47;4925239;28;20054;-94
2022/10/15 02:24:41;;;;;;;4.03;1.70;;;;;;;9.91;73.93;99784.16;4941800;28;20034;-94
2022/10/15 02:27:07;;;;;;;4.55;2.08;;;;;;;9.80;74.64;99785.13;4942620;28;20030;-95
2022/10/15 02:29:34;;;;;;;2.35;1.77;;;;;;;9.79;74.25;99778.09;4926152;28;20097;-94
2022/10/15 02:32:00;;;;;;;2.22;1.80;;;;;;;9.83;74.73;99799.94;4941870;28;20034;-94
2022/10/15 02:34:27;;;;;;;3.65;2.10;;;;;;;9.81;74.58;99794.00;4941719;28;20129;-94
2022/10/15 02:36:53;;;;;;;2.97;1.90;;;;;;;9.71;74.77;99782.06;4922744;29;20031;-94
2022/10/15 02:39:21;;;;;;;3.78;1.95;;;;;;;9.78;74.59;99789.13;4923070;29;20027;-94
2022/10/15 02:41:47;;;;;;;3.97;1.83;;;;;;;9.71;74.66;99787.44;4924459;28;20054;-94
2022/10/15 02:44:13;;;;;;;5.28;2.08;;;;;;;9.71;74.37;99781.25;4957668;28;20054;-94
2022/10/15 02:46:39;;;;;;;2.58;1.80;;;;;;;9.95;73.53;99795.22;4941940;28;20027;-94
2022/10/15 02:49:04;;;;;;;6.00;1.98;;;;;;;10.04;72.97;99796.41;4941555;28;20046;-94
2022/10/15 02:51:31;;;;;;;4.50;1.65;;;;;;;9.93;72.88;99788.47;4910427;29;20088;-94
2022/10/15 02:53:58;;;;;;;2.50;1.90;;;;;;;9.76;73.99;99777.81;4907088;29;20031;-93
2022/10/15 02:56:23;;;;;;;4.78;1.90;;;;;;;9.59;74.80;99780.59;4937619;28;20129;-94
2022/10/15 02:58:49;;;;;;;2.03;1.58;;;;;;;9.81;73.62;99799.38;4941550;28;20126;-94
2022/10/15 03:01:15;;;;;;;2.42;1.60;;;;;;;9.81;73.70;99785.91;4941573;28;20062;-93
2022/10/15 03:03:42;;;;;;;5.20;2.08;;;;;;;9.89;73.10;99785.47;4941566;28;20030;-94
2022/10/15 03:06:07;;;;;;;2.55;1.67;;;;;;;9.80;73.45;99782.44;4926441;28;20098;-93
2022/10/15 03:08:33;;;;;;;6.80;2.17;;;;;;;9.77;73.35;99774.03;4926229;28;20065;-94
2022/10/15 03:11:00;;;;;;;4.50;1.80;;;;;;;9.89;73.62;99798.91;4914665;29;20027;-93
2022/10/15 03:13:26;;;;;;;2.38;1.70;;;;;;;9.67;74.23;99798.94;4922201;29;20071;-93
2022/10/15 03:15:52;;;;;;;7.57;1.80;;;;;;;9.49;74.99;99797.41;4906654;29;20486;-94
2022/10/15 03:18:17;;;;;;;3.03;2.03;;;;;;;9.52;74.83;99794.19;4922499;29;20031;-94
2022/10/15 03:20:43;;;;;;;3.85;1.90;;;;;;;9.45;75.06;99791.72;4906598;29;20050;-94
2022/10/15 03:23:09;;;;;;;4.22;2.10;;;;;;;9.48;75.08;99801.97;4922389;29;20086;-94
2022/10/15 03:25:35;;;;;;;3.30;1.65;;;;;;;9.37;75.29;99802.09;4931145;28;20413;-94
2022/10/15 03:28:02;;;;;;;4.20;2.00;;;;;;;9.42;75.41;99800.28;4941767;28;20027;-94
2022/10/15 03:30:28;;;;;;;2.13;1.58;;;;;;;9.49;74.89;99795.53;4918267;29;20036;-93
2022/10/15 03:32:55;;;;;;;3.53;1.75;;;;;;;9.60;74.60;99811.78;4923459;28;20041;-94
2022/10/15 03:35:20;;;;;;;5.72;2.25;;;;;;;9.56;74.92;99807.97;4947891;28;20477;-94
2022/10/15 03:37:47;;;;;;;4.32;2.03;;;;;;;9.51;74.35;99795.28;4929427;28;20090;-94
2022/10/15 03:40:12;;;;;;;3.53;2.10;;;;;;;9.46;74.85;99800.59;4944828;28;20031;-93
2022/10/15 03:42:38;;;;;;;5.30;1.92;;;;;;;9.36;75.98;99803.97;4944664;28;20485;-94
2022/10/15 03:45:05;;;;;;;6.85;2.70;;;;;;;9.12;76.49;99789.94;4945173;28;20030;-93
2022/10/15 03:47:31;;;;;;;4.55;2.08;;;;;;;9.21;76.33;99822.56;4945249;28;20050;-93
2022/10/15 03:49:56;;;;;;;4.43;2.03;;;;;;;9.09;75.99;99809.25;4925693;29;20031;-94
2022/10/15 03:52:22;;;;;;;4.05;2.20;;;;;;;9.16;76.30;99826.00;4925952;29;20031;-93
2022/10/15 03:54:48;;;;;;;11.85;2.50;;;;;;;9.16;76.29;99820.63;4925759;29;20023;-94
2022/10/15 03:57:14;;;;;;;3.97;2.20;;;;;;;9.19;75.84;99813.94;4910205;29;20032;-95
2022/10/15 03:59:39;;;;;;;5.20;2.63;;;;;;;9.19;76.96;99833.56;4910681;28;20068;-93
2022/10/15 04:02:06;;;;;;;6.05;2.55;;;;;;;8.98;76.73;99819.03;4944563;28;20134;-93
2022/10/15 04:04:32;;;;;;;5.53;2.67;;;;;;;8.97;76.93;99821.97;4945302;28;20031;-93
2022/10/15 04:06:59;;;;;;;5.30;3.15;;;;;;;8.98;76.53;99827.09;4944732;28;20034;-93
2022/10/15 04:09:26;;;;;;;6.15;2.92;;;;;;;8.86;77.00;99829.88;4944147;28;20125;-93
2022/10/15 04:11:51;;;;;;;5.30;2.83;;;;;;;8.70;77.43;99818.09;4910197;29;20027;-94
2022/10/15 04:14:19;;;;;;;10.13;3.45;;;;;;;8.59;77.98;99812.81;4909473;29;20031;-93
2022/10/15 04:16:45;;;;;;;7.05;3.13;;;;;;;8.64;77.89;99827.13;4925311;29;20523;-93
2022/10/15 04:19:11;;;;;;;4.10;2.65;;;;;;;8.62;77.83;99845.34;4941239;29;20035;-92
2022/10/15 04:21:37;;;;;;;3.88;2.58;;;;;;;8.44;78.08;99829.47;4941303;28;20432;-93
2022/10/15 04:24:03;;;;;;;6.75;3.47;;;;;;;8.31;78.35;99822.53;4944953;28;20030;-93
2022/10/15 04:26:29;;;;;;;7.22;2.70;;;;;;;8.29;78.52;99833.50;4929205;29;20042;-94
2022/10/15 04:28:55;;;;;;;5.45;2.90;;;;;;;8.35;79.09;99847.81;4909195;29;20038;-93
2022/10/15 04:31:22;;;;;;;6.70;2.45;;;;;;;8.34;78.81;99840.81;4924471;28;20034;-93
2022/10/15 04:33:48;;;;;;;4.80;2.50;;;;;;;8.21;79.13;99830.41;4928763;28;20543;-93
2022/10/15 04:36:14;;;;;;;6.28;3.03;;;;;;;8.22;78.95;99840.09;4914797;29;20031;-94
2022/10/15 04:38:40;;;;;;;6.30;2.85;;;;;;;8.14;78.85;99830.56;4908647;29;20027;-93
2022/10/15 04:41:08;;;;;;;5.30;2.75;;;;;;;8.20;79.25;99839.50;4953446;28;20035;-93
2022/10/15 04:43:35;;;;;;;6.70;3.80;;;;;;;8.05;79.32;99824.78;4928492;28;20026;-93
2022/10/15 04:46:02;;;;;;;5.03;2.47;;;;;;;8.12;79.23;99838.03;4940618;29;20055;-93
2022/10/15 04:48:28;;;;;;;10.63;3.60;;;;;;;8.12;79.53;99840.72;4924792;29;20417;-94
2022/10/15 04:50:54;;;;;;;8.43;3.35;;;;;;;8.12;78.80;99848.75;4941557;29;20062;-93
2022/10/15 04:53:20;;;;;;;7.40;2.58;;;;;;;8.03;79.42;99853.69;4925548;29;20011;-94
2022/10/15 04:55:47;;;;;;;5.80;2.67;;;;;;;8.07;79.24;99851.31;4918771;29;20405;-93
2022/10/15 04:58:12;;;;;;;7.78;2.70;;;;;;;8.10;79.43;99856.22;4910536;29;20437;-93
2022/10/15 05:00:39;;;;;;;4.65;3.10;;;;;;;8.05;79.39;99851.59;4910287;29;20031;-94
2022/10/15 05:03:05;;;;;;;7.97;2.90;;;;;;;8.08;79.57;99851.09;4957077;29;20119;-94
2022/10/15 05:05:32;;;;;;;9.18;3.10;;;;;;;8.21;78.94;99868.75;4908677;29;20039;-94
2022/10/15 05:08:03;;;;;;;6.60;3.08;;;;;;;8.12;78.75;99870.22;4925341;29;20030;-93
2022/10/15 05:10:30;;;;;;;4.97;3.13;;;;;;;8.09;78.70;99859.94;4933799;28;20030;-94
2022/10/15 05:12:55;;;;;;;4.15;2.75;;;;;;;8.05;78.80;99859.63;4944624;28;20062;-94
2022/10/15 05:15:24;;;;;;;8.57;3.85;;;;;;;8.12;78.62;99869.41;4943484;28;20035;-94
2022/10/15 05:17:50;;;;;;;6.35;3.47;;;;;;;8.04;79.20;99865.22;4928583;28;20404;-93
2022/10/15 05:20:15;;;;;;;8.38;3.38;;;;;;;7.96;78.76;99869.09;4944441;28;20505;-93
2022/10/15 05:22:41;;;;;;;7.22;3.50;;;;;;;7.96;79.11;99868.28;4928704;28;20091;-93
2022/10/15 05:25:07;;;;;;;4.88;2.78;;;;;;;8.20;78.51;99891.28;4943641;28;20034;-92
2022/10/15 05:27:33;;;;;;;7.85;3.50;;;;;;;8.20;78.47;99880.56;4943734;28;20097;-92
2022/10/15 05:29:59;;;;;;;7.22;3.45;;;;;;;8.07;78.42;99878.97;4940324;29;20050;-92
2022/10/15 05:32:24;;;;;;;8.98;3.03;;;;;;;8.08;78.76;99877.09;4908374;29;20031;-92
2022/10/15 05:34:50;;;;;;;8.07;2.85;;;;;;;8.08;78.84;99882.47;4910871;28;20031;-92
2022/10/15 05:37:16;;;;;;;5.32;3.53;;;;;;;8.12;78.30;99891.66;4943014;28;20485;-92
2022/10/15 05:39:42;;;;;;;5.25;3.53;;;;;;;7.99;78.55;99882.03;4943224;28;20102;-92
2022/10/15 05:42:09;;;;;;;7.38;2.95;;;;;;;8.03;78.30;99893.91;4942532;28;20023;-92
2022/10/15 05:44:35;;;;;;;4.60;3.22;;;;;;;8.08;78.44;99893.19;4957791;28;20453;-92
2022/10/15 05:47:01;;;;;;;7.93;3.05;;;;;;;8.02;78.02;99891.47;4907708;29;20175;-92
2022/10/15 05:49:26;;;;;;;5.35;3.28;;;;;;;8.10;78.12;99912.53;4908204;29;20099;-92
2022/10/15 05:51:54;;;;;;;4.35;2.65;;;;;;;8.06;78.08;99906.03;4908248;29;20027;-91
2022/10/15 05:54:20;;;;;;;8.90;4.55;;;;;;;8.15;78.12;99914.50;4955879;29;20019;-91
2022/10/15 05:56:46;;;;;;;8.45;4.60;;;;;;;8.24;77.77;99923.81;4924542;28;20035;-92
2022/10/15 05:59:13;;;;;;;11.20;5.03;;;;;;;8.28;77.81;99914.25;4974607;28;20054;-92
2022/10/15 06:01:39;;;;;;;9.75;4.07;;;;;;;8.22;77.28;99893.72;4958658;28;20038;-91
2022/10/15 06:04:05;;;;;;;12.40;4.72;;;;;;;8.32;77.70;99917.22;4942095;28;20085;-92
2022/10/15 06:06:31;;;;;;;7.22;3.47;;;;;;;8.41;77.43;99919.34;4957625;28;20054;-91
2022/10/15 06:08:57;;;;;;;6.68;4.03;;;;;;;8.28;76.96;99907.00;4958404;28;20113;-91
2022/10/15 06:11:24;;;;;;;8.48;4.13;;;;;;;8.49;76.61;99915.44;4926760;28;20033;-92
2022/10/15 06:13:49;;;;;;;9.38;4.20;;;;;;;8.51;77.54;99913.34;4926442;28;20117;-90
2022/10/15 06:16:16;;;;;;;9.25;4.30;;;;;;;8.47;77.02;99907.63;4926586;28;20081;-91
2022/10/15 06:18:43;;;;;;;7.20;4.57;;;;;;;8.51;77.49;99902.59;4925906;28;20057;-94
2022/10/15 06:21:09;;;;;;;7.13;3.95;;;;;;;8.65;77.23;99917.34;4958128;28;20120;-94
2022/10/15 06:23:35;;;;;;;11.90;4.70;;;;;;;8.58;76.98;99910.50;4926886;28;20031;-90
2022/10/15 06:26:05;;;;;;;7.85;4.10;;;;;;;8.61;76.43;99916.22;4958207;28;20035;-91
2022/10/15 06:28:32;;;;;;;11.50;4.15;;;;;;;8.56;76.97;99917.97;4925994;28;20074;-89
2022/10/15 06:30:58;;;;;;;9.10;4.15;;;;;;;8.69;77.44;99929.25;4959129;28;20133;-95
2022/10/15 06:33:26;;;;;;;8.75;4.10;;;;;;;8.68;76.54;99924.09;4927005;28;20031;-94
2022/10/15 06:35:52;;;;;;;6.70;3.97;;;;;;;8.83;76.58;99942.34;4944875;28;20023;-94
2022/10/15 06:38:18;;;;;;;6.70;3.90;;;;;;;8.85;75.69;99924.13;4927276;28;20022;-95
2022/10/15 06:40:47;;;;;;;10.80;4.50;;;;;;;9.01;75.93;99947.47;4960574;28;20038;-95
2022/10/15 06:43:14;;;;;;;6.47;4.18;;;;;;;8.96;75.54;99930.47;4936522;28;20031;-96
2022/10/15 06:45:43;;;;;;;7.25;4.28;;;;;;;8.97;75.13;99932.91;4941791;28;20022;-92
2022/10/15 06:48:10;;;;;;;6.45;4.22;;;;;;;9.12;75.81;99955.69;4942292;28;20043;-92
2022/10/15 06:50:39;;;;;;;9.45;4.68;;;;;;;9.12;75.18;99940.41;4941465;28;20039;-94
2022/10/15 06:53:05;;;;;;;8.00;3.80;;;;;;;9.34;74.86;99955.75;4941594;28;20098;-93
2022/10/15 06:55:32;;;;;;;8.00;4.53;;;;;;;9.41;74.52;99961.78;4942205;28;20078;-92
2022/10/15 06:57:58;;;;;;;7.60;4.55;;;;;;;9.50;74.12;99950.38;4942009;28;20445;-90
2022/10/15 07:00:27;;;;;;;15.23;6.55;;;;;;;9.57;73.68;99941.34;4958358;28;20027;-92
2022/10/15 07:02:53;;;;;;;7.75;4.32;;;;;;;9.70;73.04;99946.34;4957806;28;20114;-92
2022/10/15 07:05:19;;;;;;;12.05;4.60;;;;;;;9.84;72.97;99947.59;4926390;28;20062;-91
2022/10/15 07:10:57;;;;;;;;;;;;;;;10.16;73.11;99965.75;4939511;29;20102;-92
2022/10/15 07:13:23;;;;;;;10.77;4.50;;;;;;;10.20;72.11;99958.00;4944229;28;19910;-92
2022/10/15 07:15:52;;;;;;;7.82;4.18;;;;;;;10.09;72.12;99930.97;4929701;28;20519;-93
2022/10/15 07:18:18;;;;;;;7.82;3.78;;;;;;;10.20;72.20;99937.28;4929806;28;20109;-92
2022/10/15 07:20:45;;;;;;;7.65;4.20;;;;;;;10.39;71.78;99955.81;4945469;28;20043;-93
2022/10/15 07:23:13;;;;;;;8.65;4.15;;;;;;;10.45;71.24;99955.59;4961760;28;20030;-92
2022/10/15 07:25:40;;;;;;;7.75;4.38;;;;;;;10.44;71.61;99945.13;4951936;29;20091;-92
2022/10/15 07:28:08;;;;;;;10.98;4.32;;;;;;;10.52;71.02;99947.31;4941658;29;20066;-92
2022/10/15 07:30:34;;;;;;;7.47;4.63;;;;;;;10.65;70.70;99956.91;4918988;28;20110;-92
2022/10/15 07:33:00;;;;;;;9.02;4.47;;;;;;;10.60;70.90;99962.22;4945037;28;20105;-92
2022/10/15 07:35:28;;;;;;;7.57;4.28;;;;;;;10.76;70.74;99961.31;4960999;28;20061;-92
2022/10/15 07:37:55;;;;;;;8.98;4.53;;;;;;;10.66;70.42;99947.75;4945093;28;20034;-93
2022/10/15 07:40:21;;;;;;;6.72;4.07;;;;;;;10.69;70.40;99958.03;4929600;28;20030;-92
2022/10/15 07:42:53;;;;;;;7.63;4.25;;;;;;;10.71;70.54;99962.06;4946079;28;20031;-91
2022/10/15 07:45:19;;;;;;;7.53;4.15;;;;;;;10.62;71.20;99958.19;4929676;28;20038;-91
2022/10/15 07:47:45;;;;;;;66.97;36.90;;;;;;;10.68;71.30;99967.97;4928629;28;20018;-92
2022/10/15 07:50:11;;;;;;;11.73;5.78;;;;;;;10.63;72.41;99967.91;4944204;28;20038;-92
2022/10/15 07:52:40;;;;;;;7.47;4.10;;;;;;;10.76;72.86;99982.84;4960618;28;20027;-92
2022/10/15 07:55:07;;;;;;;8.88;4.55;;;;;;;10.64;74.57;99982.19;4924521;29;20042;-92
2022/10/15 07:57:33;;;;;;;10.82;5.40;;;;;;;10.50;74.96;99969.13;4925057;29;20512;-92
2022/10/15 08:00:00;;;;;;;10.15;4.65;;;;;;;10.38;75.83;99968.47;4909419;29;20027;-92
2022/10/15 08:02:25;;;;;;;8.20;5.63;;;;;;;10.40;76.30;99958.25;4925681;29;20089;-92
2022/10/15 08:04:51;;;;;;;9.80;5.13;;;;;;;10.61;75.80;99991.59;4927876;28;20448;-90
2022/10/15 08:07:17;;;;;;;10.70;5.68;;;;;;;10.58;76.50;99980.50;4943605;28;20031;-91
2022/10/15 08:09:42;;;;;;;10.25;6.22;;;;;;;10.57;76.63;99968.94;4926875;28;20501;-92
2022/10/15 08:12:08;;;;;;;9.60;5.05;;;;;;;10.59;76.03;99968.69;4909416;29;20016;-91
2022/10/15 08:14:34;;;;;;;9.55;5.15;;;;;;;10.64;76.12;99980.31;4909404;29;20031;-92
2022/10/15 08:17:01;;;;;;;10.35;5.32;;;;;;;10.63;76.44;99964.41;4908894;29;20126;-91
2022/10/15 08:19:29;;;;;;;10.68;5.35;;;;;;;10.68;75.14;99962.56;4923984;29;20425;-93
2022/10/15 08:21:55;;;;;;;8.23;5.00;;;;;;;10.71;74.98;99975.53;4925137;29;20107;-90
2022/10/15 08:24:21;;;;;;;9.13;4.97;;;;;;;10.70;74.98;99979.28;4909107;29;20027;-90
2022/10/15 08:26:48;;;;;;;8.82;5.85;;;;;;;10.61;76.29;99959.28;4924046;29;20043;-91
2022/10/15 08:29:14;;;;;;;10.48;5.55;;;;;;;10.67;74.53;99969.03;4924666;29;20041;-91
2022/10/15 08:31:41;;;;;;;8.75;4.30;;;;;;;10.66;74.79;99970.09;4909380;29;20035;-92
2022/10/15 08:34:09;;;;;;;6.97;3.80;;;;;;;10.71;73.74;99966.66;4924594;29;20413;-90
2022/10/15 08:36:36;;;;;;;8.35;4.88;;;;;;;10.94;73.11;99976.28;4940901;29;20027;-90
2022/10/15 08:39:01;;;;;;;7.85;3.55;;;;;;;10.95;72.29;99977.91;4924640;29;20552;-90
2022/10/15 08:41:40;;;;;;;6.28;2.80;;;;;;;11.17;71.10;99979.72;4907468;29;20035;-90
2022/10/15 08:44:06;;;;;;;6.22;3.40;;;;;;;11.02;69.49;99964.22;4923979;29;20473;-89
2022/10/15 08:46:37;;;;;;;5.28;2.75;;;;;;;11.01;68.41;99965.31;4940226;28;20035;-90
2022/10/15 08:49:04;;;;;;;4.30;2.60;;;;;;;11.24;69.48;99978.41;4958854;28;20097;-90
2022/10/15 08:51:43;;;;;;;6.38;4.10;;;;;;;11.21;69.28;99959.28;4926891;28;20030;-89
2022/10/15 08:54:13;;;;;;;5.22;3.08;;;;;;;11.28;69.31;99979.53;4942835;28;20031;-89
2022/10/15 08:56:41;;;;;;;3.75;2.53;;;;;;;11.21;69.57;99967.34;4959123;28;20037;-90
2022/10/15 08:59:40;;;;;;;3.78;2.78;;;;;;;11.45;68.50;99995.56;4941228;28;20050;-90
2022/10/15 09:02:25;;;;;;;5.28;2.80;;;;;;;11.39;68.07;99991.19;4898112;29;20051;-90
2022/10/15 09:05:02;;;;;;;6.65;3.03;;;;;;;11.27;69.22;99982.50;4884655;29;20044;-95
2022/10/15 09:07:27;;;;;;;5.82;3.38;;;;;;;11.53;68.94;100005.88;4885805;29;20103;-94
2022/10/15 09:09:57;;;;;;;7.30;3.38;;;;;;;11.68;68.86;100009.75;4901896;29;20040;-94
2022/10/15 09:12:42;;;;;;;6.43;3.17;;;;;;;11.81;67.60;99995.00;4886513;29;20467;-93
2022/10/15 09:15:21;;;;;;;8.73;4.47;;;;;;;11.80;68.85;99996.06;4902129;29;20091;-93
2022/10/15 09:17:48;;;;;;;10.02;4.07;;;;;;;11.95;67.70;100004.25;4899911;29;20067;-93
2022/10/15 09:20:24;;;;;;;5.78;3.00;;;;;;;11.99;66.30;99983.78;4898430;29;20061;-92
2022/10/15 09:22:50;;;;;;;6.75;3.17;;;;;;;11.98;65.85;99992.97;4882134;29;20084;-93
2022/10/15 09:25:21;;;;;;;6.45;3.47;;;;;;;11.99;65.97;99999.16;4850821;29;20064;-92
2022/10/15 09:27:47;;;;;;;7.90;3.67;;;;;;;11.90;67.14;99988.06;4868771;29;20123;-94
2022/10/15 09:30:47;;;;;;;6.00;3.30;;;;;;;11.92;66.82;99994.81;4882702;29;20032;-94
2022/10/15 09:33:26;;;;;;;7.82;3.65;;;;;;;12.16;68.35;100012.47;4885584;29;20047;-94
2022/10/15 09:36:06;;;;;;;7.15;3.55;;;;;;;12.17;64.82;99996.00;4956442;29;20028;-93
2022/10/15 09:38:38;;;;;;;6.72;3.42;;;;;;;12.34;64.94;100002.00;4924221;29;20035;-93
2022/10/15 09:41:19;;;;;;;5.38;3.05;;;;;;;12.30;65.84;100008.19;4939532;29;20106;-93
2022/10/15 09:43:50;;;;;;;6.97;3.83;;;;;;;12.08;66.09;99992.19;4959385;29;20035;-89
2022/10/15 09:46:17;;;;;;;7.88;3.70;;;;;;;12.25;66.56;99998.19;4923673;29;20393;-88
2022/10/15 09:49:31;;;;;;;7.60;3.17;;;;;;;12.43;66.15;100006.91;4907192;29;20463;-89
2022/10/15 09:52:06;;;;;;;7.80;3.58;;;;;;;12.51;65.67;100012.63;4899630;29;20051;-89
2022/10/15 09:54:44;;;;;;;7.65;3.45;;;;;;;12.43;65.10;99978.03;4933744;28;20106;-90
2022/10/15 09:57:11;;;;;;;7.45;3.85;;;;;;;12.58;64.91;99995.34;4927075;28;20481;-89
2022/10/15 09:59:36;;;;;;;4.38;3.28;;;;;;;12.56;64.34;99987.50;4942364;28;20185;-89
2022/10/15 10:02:04;;;;;;;7.40;3.67;;;;;;;12.61;64.05;99994.81;4926081;28;20401;-89
2022/10/15 10:04:33;;;;;;;9.57;3.58;;;;;;;12.63;64.56;99996.16;4926101;28;20401;-89
2022/10/15 10:07:08;;;;;;;6.72;2.97;;;;;;;12.75;64.54;99985.09;4923812;29;20094;-91
2022/10/15 10:09:37;;;;;;;7.38;4.10;;;;;;;12.89;63.54;99997.03;4923056;29;20062;-89
2022/10/15 10:12:07;;;;;;;8.27;3.75;;;;;;;13.06;64.03;99996.78;4955428;29;20027;-89
2022/10/15 10:14:45;;;;;;;6.35;3.65;;;;;;;12.99;63.76;99981.88;4922628;28;20078;-89
2022/10/15 10:17:43;;;;;;;6.40;4.18;;;;;;;13.17;62.96;99997.59;4941600;28;20030;-88
2022/10/15 10:20:09;;;;;;;7.95;3.65;;;;;;;13.44;62.61;100000.03;4907492;29;20065;-90
2022/10/15 10:22:58;;;;;;;7.13;3.05;;;;;;;13.81;60.25;99992.69;4879378;29;20081;-89
2022/10/15 10:25:26;;;;;;;5.13;3.47;;;;;;;13.67;60.94;99997.84;4870356;29;20570;-89
2022/10/15 10:27:54;;;;;;;7.07;3.80;;;;;;;13.79;60.69;99979.41;4913630;29;20028;-90
2022/10/15 10:30:20;;;;;;;8.32;3.95;;;;;;;13.70;61.08;99983.78;4883683;29;20040;-90
2022/10/15 10:32:46;;;;;;;5.07;3.10;;;;;;;13.45;61.48;99980.03;4883250;29;20036;-90
2022/10/15 10:35:22;;;;;;;5.30;3.30;;;;;;;13.47;61.33;99979.75;4915488;29;20435;-91
2022/10/15 10:37:47;;;;;;;11.63;4.07;;;;;;;13.57;63.09;99987.84;4883785;29;20039;-91
2022/10/15 10:40:29;;;;;;;7.72;3.92;;;;;;;13.77;61.73;99991.59;4915079;29;20048;-91
2022/10/15 10:43:18;;;;;;;5.55;3.42;;;;;;;13.68;60.71;99992.16;4915869;29;20039;-91
2022/10/15 10:45:59;;;;;;;14.30;4.00;;;;;;;13.68;61.41;99984.03;4889714;29;20049;-90
2022/10/15 10:48:51;;;;;;;8.50;4.72;;;;;;;13.60;61.20;99973.78;4881096;29;20020;-91
2022/10/15 10:51:27;;;;;;;6.07;3.78;;;;;;;13.64;60.25;99968.63;4938079;28;20493;-90
2022/10/15 10:54:06;;;;;;;7.03;4.05;;;;;;;13.80;59.98;99972.94;4941049;28;20442;-91
2022/10/15 10:56:42;;;;;;;7.03;3.65;;;;;;;13.76;59.89;99950.22;4956597;28;20030;-89
2022/10/15 10:59:17;;;;;;;11.05;4.13;;;;;;;13.89;60.59;99960.44;4956784;28;20039;-88
2022/10/15 11:01:44;;;;;;;6.93;3.80;;;;;;;13.89;60.20;99948.81;4956718;28;20127;-89
2022/10/15 11:04:14;;;;;;;7.05;3.55;;;;;;;13.84;60.60;99949.63;4974378;28;20026;-90
2022/10/15 11:06:43;;;;;;;7.97;4.07;;;;;;;13.85;60.49;99956.66;4957094;28;20466;-90
2022/10/15 11:09:18;;;;;;;11.05;4.32;;;;;;;13.81;60.22;99950.19;4956246;28;20038;-90
2022/10/15 11:11:56;;;;;;;9.05;3.75;;;;;;;13.87;60.67;99956.41;4956437;28;20088;-90
2022/10/15 11:14:47;;;;;;;7.22;3.75;;;;;;;13.83;60.21;99955.31;4957036;28;20030;-88
2022/10/15 11:17:24;;;;;;;6.68;3.20;;;;;;;13.74;60.35;99952.38;4956454;28;20465;-89
2022/10/15 11:20:00;;;;;;;5.70;3.40;;;;;;;13.90;59.58;99945.84;4953545;28;20093;-93
2022/10/15 11:22:40;;;;;;;8.18;3.65;;;;;;;13.87;60.27;99943.66;4906674;29;20035;-88
2022/10/15 11:25:38;;;;;;;8.45;3.85;;;;;;;13.90;59.22;99918.75;4922200;29;20109;-88
2022/10/15 11:28:34;;;;;;;6.72;3.42;;;;;;;14.03;59.04;99935.47;4926852;29;20106;-89
2022/10/15 11:31:14;;;;;;;6.28;3.45;;;;;;;13.78;59.35;99912.00;4927768;29;20039;-90
2022/10/15 11:33:40;;;;;;;5.75;3.60;;;;;;;14.06;58.80;99933.03;4922430;29;20513;-90
2022/10/15 11:36:47;;;;;;;6.78;3.80;;;;;;;14.05;59.12;99917.88;4966926;28;20022;-88
2022/10/15 11:39:42;;;;;;;8.60;4.20;;;;;;;14.07;60.06;99925.69;4937849;28;20516;-90
2022/10/15 11:42:13;;;;;;;12.07;4.75;;;;;;;14.23;59.51;99926.44;4956622;28;20030;-90
2022/10/15 11:44:54;;;;;;;87.07;45.67;;;;;;;14.29;58.99;99926.13;4956200;28;20037;-90
2022/10/15 11:47:39;;;;;;;7.55;4.13;;;;;;;14.40;58.57;99924.19;4974138;28;20030;-93
2022/10/15 11:50:14;;;;;;;6.65;3.92;;;;;;;14.15;58.64;99927.84;4973523;28;20118;-91
2022/10/15 11:53:13;;;;;;;8.48;3.78;;;;;;;14.02;58.51;99893.25;4974224;28;20105;-92
2022/10/15 11:55:59;;;;;;;5.05;3.13;;;;;;;14.43;58.33;99914.69;4943052;28;20034;-91
2022/10/15 11:58:53;;;;;;;5.53;3.60;;;;;;;14.55;57.85;99893.47;4959820;28;20126;-95